sensor_id;sensor_type;location;lat;lon;timestamp;pressure;altitude;pressure_sealevel;temperature;humidity
73332;BME280;61560;33.718;73.040;2023-03-21T00:00:56;94420.63;;;17.29;66.34
73332;BME280;61560;33.718;73.040;2023-03-21T00:03:24;94419.13;;;17.18;66.53
73332;BME280;61560;33.718;73.040;2023-03-21T00:05:51;94423.88;;;17.18;66.56
73332;BME280;61560;33.718;73.040;2023-03-21T00:08:20;94427.59;;;17.15;66.84
73332;BME280;61560;33.718;73.040;2023-03-21T00:10:47;94430.34;;;17.15;66.66
73332;BME280;61560;33.718;73.040;2023-03-21T00:13:21;94425.13;;;17.17;66.73
73332;BME280;61560;33.718;73.040;2023-03-21T00:15:47;94428.06;;;17.13;66.66
73332;BME280;61560;33.718;73.040;2023-03-21T00:18:21;94433.13;;;17.15;66.74
73332;BME280;61560;33.718;73.040;2023-03-21T00:20:58;94420.06;;;17.06;67.09
73332;BME280;61560;33.718;73.040;2023-03-21T00:23:27;94405.16;;;17.04;67.06
73332;BME280;61560;33.718;73.040;2023-03-21T00:25:54;94414.09;;;16.99;67.31
73332;BME280;61560;33.718;73.040;2023-03-21T00:28:22;94416.69;;;17.02;67.33
73332;BME280;61560;33.718;73.040;2023-03-21T00:30:49;94422.38;;;17.08;67.33
73332;BME280;61560;33.718;73.040;2023-03-21T00:33:19;94413.94;;;17.11;67.42
73332;BME280;61560;33.718;73.040;2023-03-21T00:35:49;94415.13;;;17.10;67.67
73332;BME280;61560;33.718;73.040;2023-03-21T00:38:18;94425.13;;;17.08;67.67
73332;BME280;61560;33.718;73.040;2023-03-21T00:40:47;94433.13;;;17.06;68.34
73332;BME280;61560;33.718;73.040;2023-03-21T00:43:14;94422.38;;;17.08;68.50
73332;BME280;61560;33.718;73.040;2023-03-21T00:45:50;94416.38;;;17.00;68.95
73332;BME280;61560;33.718;73.040;2023-03-21T00:48:17;94417.47;;;16.94;69.54
73332;BME280;61560;33.718;73.040;2023-03-21T00:50:45;94434.53;;;16.92;69.63
73332;BME280;61560;33.718;73.040;2023-03-21T00:53:14;94442.41;;;16.85;70.52
73332;BME280;61560;33.718;73.040;2023-03-21T00:55:41;94450.22;;;16.86;71.03
73332;BME280;61560;33.718;73.040;2023-03-21T00:58:08;94456.06;;;16.88;72.21
73332;BME280;61560;33.718;73.040;2023-03-21T01:00:37;94471.41;;;16.89;72.53
73332;BME280;61560;33.718;73.040;2023-03-21T01:03:06;94482.34;;;16.93;73.80
73332;BME280;61560;33.718;73.040;2023-03-21T01:05:38;94493.09;;;16.91;74.46
73332;BME280;61560;33.718;73.040;2023-03-21T01:08:25;94513.22;;;16.82;75.95
73332;BME280;61560;33.718;73.040;2023-03-21T01:10:54;94519.50;;;16.74;77.84
73332;BME280;61560;33.718;73.040;2023-03-21T01:13:23;94517.34;;;16.60;79.00
73332;BME280;61560;33.718;73.040;2023-03-21T01:15:53;94522.97;;;16.47;79.90
73332;BME280;61560;33.718;73.040;2023-03-21T01:18:23;94561.63;;;16.38;80.23
73332;BME280;61560;33.718;73.040;2023-03-21T01:20:55;94625.81;;;16.33;81.22
73332;BME280;61560;33.718;73.040;2023-03-21T01:23:24;94622.81;;;16.18;77.63
73332;BME280;61560;33.718;73.040;2023-03-21T01:25:53;94618.03;;;16.10;77.06
73332;BME280;61560;33.718;73.040;2023-03-21T01:28:28;94609.16;;;15.84;76.21
73332;BME280;61560;33.718;73.040;2023-03-21T01:30:55;94603.00;;;15.24;74.62
73332;BME280;61560;33.718;73.040;2023-03-21T01:33:23;94608.19;;;14.88;80.15
73332;BME280;61560;33.718;73.040;2023-03-21T01:35:50;94605.47;;;14.75;81.80
73332;BME280;61560;33.718;73.040;2023-03-21T01:38:17;94589.63;;;14.67;82.19
73332;BME280;61560;33.718;73.040;2023-03-21T01:40:47;94580.91;;;14.56;81.49
73332;BME280;61560;33.718;73.040;2023-03-21T01:43:33;94595.91;;;14.55;83.60
73332;BME280;61560;33.718;73.040;2023-03-21T01:49:28;94617.06;;;14.33;82.46
73332;BME280;61560;33.718;73.040;2023-03-21T01:52:16;94643.41;;;14.21;83.29
73332;BME280;61560;33.718;73.040;2023-03-21T02:03:09;94660.34;;;14.07;84.14
73332;BME280;61560;33.718;73.040;2023-03-21T02:05:59;94631.72;;;14.17;84.43
73332;BME280;61560;33.718;73.040;2023-03-21T02:08:33;94609.47;;;14.24;84.11
73332;BME280;61560;33.718;73.040;2023-03-21T02:11:06;94618.47;;;14.25;84.53
73332;BME280;61560;33.718;73.040;2023-03-21T02:36:22;94616.09;;;14.39;85.04
73332;BME280;61560;33.718;73.040;2023-03-21T02:39:07;94626.56;;;14.44;84.74
73332;BME280;61560;33.718;73.040;2023-03-21T02:42:08;94631.63;;;14.46;84.45
73332;BME280;61560;33.718;73.040;2023-03-21T02:44:46;94626.56;;;14.44;84.26
73332;BME280;61560;33.718;73.040;2023-03-21T02:47:23;94637.34;;;14.39;83.72
73332;BME280;61560;33.718;73.040;2023-03-21T02:50:06;94663.25;;;14.41;84.21
73332;BME280;61560;33.718;73.040;2023-03-21T02:52:37;94685.63;;;14.43;83.78
73332;BME280;61560;33.718;73.040;2023-03-21T02:55:11;94680.03;;;14.47;83.87
73332;BME280;61560;33.718;73.040;2023-03-21T02:57:53;94678.81;;;14.48;83.90
73332;BME280;61560;33.718;73.040;2023-03-21T03:00:25;94662.06;;;14.55;83.92
73332;BME280;61560;33.718;73.040;2023-03-21T03:02:54;94666.13;;;14.63;84.00
73332;BME280;61560;33.718;73.040;2023-03-21T03:05:27;94655.78;;;14.67;83.79
73332;BME280;61560;33.718;73.040;2023-03-21T03:13:30;94639.09;;;14.83;83.86
73332;BME280;61560;33.718;73.040;2023-03-21T03:16:13;94634.91;;;14.78;84.53
73332;BME280;61560;33.718;73.040;2023-03-21T03:26:31;94657.50;;;14.86;85.08
73332;BME280;61560;33.718;73.040;2023-03-21T03:29:05;94686.16;;;14.89;84.66
73332;BME280;61560;33.718;73.040;2023-03-21T03:31:42;94719.38;;;14.98;84.62
73332;BME280;61560;33.718;73.040;2023-03-21T03:34:15;94719.69;;;15.00;84.69
73332;BME280;61560;33.718;73.040;2023-03-21T03:36:50;94705.13;;;14.99;84.48
73332;BME280;61560;33.718;73.040;2023-03-21T03:39:32;94690.47;;;14.90;84.42
73332;BME280;61560;33.718;73.040;2023-03-21T03:42:05;94707.13;;;14.86;84.61
73332;BME280;61560;33.718;73.040;2023-03-21T03:44:39;94715.31;;;14.90;84.29
73332;BME280;61560;33.718;73.040;2023-03-21T03:47:23;94722.03;;;14.89;85.38
73332;BME280;61560;33.718;73.040;2023-03-21T03:53:00;94722.59;;;14.84;85.82
73332;BME280;61560;33.718;73.040;2023-03-21T03:55:28;94711.78;;;14.89;85.48
73332;BME280;61560;33.718;73.040;2023-03-21T03:58:06;94697.44;;;14.94;85.78
73332;BME280;61560;33.718;73.040;2023-03-21T04:00:33;94682.41;;;14.95;85.17
73332;BME280;61560;33.718;73.040;2023-03-21T04:03:00;94646.38;;;14.90;84.64
73332;BME280;61560;33.718;73.040;2023-03-21T04:05:28;94657.50;;;14.86;84.59
73332;BME280;61560;33.718;73.040;2023-03-21T04:07:56;94670.84;;;14.88;85.01
73332;BME280;61560;33.718;73.040;2023-03-21T04:10:34;94686.63;;;14.87;85.62
73332;BME280;61560;33.718;73.040;2023-03-21T04:13:02;94681.88;;;14.88;85.54
73332;BME280;61560;33.718;73.040;2023-03-21T04:15:39;94698.97;;;14.95;85.46
73332;BME280;61560;33.718;73.040;2023-03-21T04:18:13;94696.31;;;14.92;86.16
73332;BME280;61560;33.718;73.040;2023-03-21T04:20:41;94706.59;;;14.91;86.03
73332;BME280;61560;33.718;73.040;2023-03-21T04:23:10;94681.75;;;14.91;86.32
73332;BME280;61560;33.718;73.040;2023-03-21T04:25:42;94665.53;;;14.93;85.49
73332;BME280;61560;33.718;73.040;2023-03-21T04:28:12;94669.06;;;14.94;86.21
73332;BME280;61560;33.718;73.040;2023-03-21T04:31:05;94693.78;;;14.97;86.61
73332;BME280;61560;33.718;73.040;2023-03-21T04:33:39;94699.06;;;15.04;86.79
73332;BME280;61560;33.718;73.040;2023-03-21T04:36:07;94676.69;;;15.02;86.63
73332;BME280;61560;33.718;73.040;2023-03-21T04:38:35;94677.09;;;15.01;86.74
73332;BME280;61560;33.718;73.040;2023-03-21T04:41:03;94693.31;;;14.99;86.38
73332;BME280;61560;33.718;73.040;2023-03-21T04:43:30;94691.78;;;15.10;86.91
73332;BME280;61560;33.718;73.040;2023-03-21T04:45:57;94687.34;;;15.13;86.15
73332;BME280;61560;33.718;73.040;2023-03-21T04:48:25;94705.31;;;15.17;85.82
73332;BME280;61560;33.718;73.040;2023-03-21T04:50:53;94701.72;;;15.08;85.91
73332;BME280;61560;33.718;73.040;2023-03-21T04:53:20;94710.44;;;15.06;85.62
73332;BME280;61560;33.718;73.040;2023-03-21T04:55:47;94707.22;;;15.08;86.19
73332;BME280;61560;33.718;73.040;2023-03-21T04:58:14;94719.69;;;15.12;85.26
73332;BME280;61560;33.718;73.040;2023-03-21T05:00:45;94721.09;;;15.17;85.33
73332;BME280;61560;33.718;73.040;2023-03-21T05:03:12;94709.84;;;15.11;85.69
73332;BME280;61560;33.718;73.040;2023-03-21T05:05:48;94691.53;;;15.05;85.99
73332;BME280;61560;33.718;73.040;2023-03-21T05:08:15;94691.88;;;15.07;86.09
73332;BME280;61560;33.718;73.040;2023-03-21T05:10:42;94699.94;;;15.14;85.92
73332;BME280;61560;33.718;73.040;2023-03-21T05:13:10;94704.78;;;15.10;86.34
73332;BME280;61560;33.718;73.040;2023-03-21T05:15:37;94705.66;;;15.07;86.39
73332;BME280;61560;33.718;73.040;2023-03-21T05:18:04;94691.22;;;15.03;86.17
73332;BME280;61560;33.718;73.040;2023-03-21T05:20:43;94714.28;;;15.09;86.26
73332;BME280;61560;33.718;73.040;2023-03-21T05:23:13;94729.94;;;15.12;86.03
73332;BME280;61560;33.718;73.040;2023-03-21T05:25:44;94725.31;;;15.09;86.14
73332;BME280;61560;33.718;73.040;2023-03-21T05:28:24;94717.59;;;15.04;85.87
73332;BME280;61560;33.718;73.040;2023-03-21T05:30:58;94713.28;;;15.03;86.04
73332;BME280;61560;33.718;73.040;2023-03-21T05:33:25;94710.53;;;15.03;86.34
73332;BME280;61560;33.718;73.040;2023-03-21T05:35:52;94705.00;;;15.03;85.94
73332;BME280;61560;33.718;73.040;2023-03-21T05:38:19;94707.44;;;15.13;86.75
73332;BME280;61560;33.718;73.040;2023-03-21T05:40:50;94702.66;;;15.26;86.82
73332;BME280;61560;33.718;73.040;2023-03-21T05:43:19;94703.38;;;15.39;86.10
73332;BME280;61560;33.718;73.040;2023-03-21T05:45:46;94708.06;;;15.42;85.52
73332;BME280;61560;33.718;73.040;2023-03-21T05:48:15;94703.97;;;15.47;85.65
73332;BME280;61560;33.718;73.040;2023-03-21T05:51:00;94698.41;;;15.60;85.15
73332;BME280;61560;33.718;73.040;2023-03-21T05:53:28;94700.00;;;15.70;85.30
73332;BME280;61560;33.718;73.040;2023-03-21T05:55:56;94684.47;;;15.85;84.62
73332;BME280;61560;33.718;73.040;2023-03-21T05:58:47;94688.25;;;16.00;84.15
73332;BME280;61560;33.718;73.040;2023-03-21T06:01:14;94676.19;;;16.06;83.47
73332;BME280;61560;33.718;73.040;2023-03-21T06:03:48;94672.25;;;16.16;83.77
73332;BME280;61560;33.718;73.040;2023-03-21T06:06:21;94660.03;;;16.26;82.69
73332;BME280;61560;33.718;73.040;2023-03-21T06:08:54;94662.88;;;16.45;83.14
73332;BME280;61560;33.718;73.040;2023-03-21T06:11:33;94648.84;;;17.09;82.57
73332;BME280;61560;33.718;73.040;2023-03-21T06:14:21;94646.25;;;18.06;79.06
73332;BME280;61560;33.718;73.040;2023-03-21T06:17:11;94627.06;;;18.76;76.72
73332;BME280;61560;33.718;73.040;2023-03-21T06:19:45;94630.69;;;19.15;72.65
73332;BME280;61560;33.718;73.040;2023-03-21T06:22:21;94628.53;;;19.19;71.20
73332;BME280;61560;33.718;73.040;2023-03-21T06:24:49;94626.59;;;19.11;69.99
73332;BME280;61560;33.718;73.040;2023-03-21T06:27:17;94633.72;;;19.03;70.14
73332;BME280;61560;33.718;73.040;2023-03-21T06:29:54;94635.25;;;19.04;71.29
73332;BME280;61560;33.718;73.040;2023-03-21T06:32:22;94622.38;;;19.15;70.87
73332;BME280;61560;33.718;73.040;2023-03-21T06:34:54;94623.81;;;19.34;71.24
73332;BME280;61560;33.718;73.040;2023-03-21T06:37:22;94620.31;;;19.48;70.47
73332;BME280;61560;33.718;73.040;2023-03-21T06:39:51;94626.50;;;19.67;70.74
73332;BME280;61560;33.718;73.040;2023-03-21T06:42:20;94623.84;;;19.87;69.92
73332;BME280;61560;33.718;73.040;2023-03-21T06:44:47;94627.13;;;20.00;69.49
73332;BME280;61560;33.718;73.040;2023-03-21T06:47:15;94626.06;;;19.98;69.70
73332;BME280;61560;33.718;73.040;2023-03-21T06:49:44;94616.69;;;20.10;68.86
73332;BME280;61560;33.718;73.040;2023-03-21T06:52:12;94602.72;;;20.33;68.79
73332;BME280;61560;33.718;73.040;2023-03-21T06:54:40;94602.59;;;20.42;68.17
73332;BME280;61560;33.718;73.040;2023-03-21T06:57:10;94598.97;;;20.36;67.63
73332;BME280;61560;33.718;73.040;2023-03-21T06:59:40;94595.22;;;20.39;68.18
73332;BME280;61560;33.718;73.040;2023-03-21T07:02:10;94604.91;;;20.44;67.50
73332;BME280;61560;33.718;73.040;2023-03-21T07:04:55;94603.94;;;20.47;66.99
73332;BME280;61560;33.718;73.040;2023-03-21T07:07:26;94601.91;;;20.62;67.28
73332;BME280;61560;33.718;73.040;2023-03-21T07:09:56;94600.25;;;20.70;66.80
73332;BME280;61560;33.718;73.040;2023-03-21T07:12:24;94601.94;;;20.82;66.85
73332;BME280;61560;33.718;73.040;2023-03-21T07:15:17;94608.91;;;21.07;65.61
73332;BME280;61560;33.718;73.040;2023-03-21T07:17:45;94603.13;;;21.10;64.08
73332;BME280;61560;33.718;73.040;2023-03-21T07:20:12;94604.69;;;21.11;64.31
73332;BME280;61560;33.718;73.040;2023-03-21T07:22:42;94600.28;;;20.90;64.45
73332;BME280;61560;33.718;73.040;2023-03-21T07:25:09;94602.91;;;20.79;65.24
73332;BME280;61560;33.718;73.040;2023-03-21T07:27:38;94608.13;;;20.72;65.49
73332;BME280;61560;33.718;73.040;2023-03-21T07:30:06;94613.03;;;20.62;64.86
73332;BME280;61560;33.718;73.040;2023-03-21T07:32:34;94607.22;;;20.46;65.04
73332;BME280;61560;33.718;73.040;2023-03-21T07:35:05;94607.59;;;20.38;65.47
73332;BME280;61560;33.718;73.040;2023-03-21T07:37:32;94604.94;;;20.29;65.87
73332;BME280;61560;33.718;73.040;2023-03-21T07:39:59;94592.16;;;20.23;65.75
73332;BME280;61560;33.718;73.040;2023-03-21T07:42:28;94588.00;;;20.18;66.54
73332;BME280;61560;33.718;73.040;2023-03-21T07:44:59;94587.38;;;20.23;66.16
73332;BME280;61560;33.718;73.040;2023-03-21T07:47:31;94596.19;;;20.22;66.33
73332;BME280;61560;33.718;73.040;2023-03-21T07:50:03;94590.63;;;20.22;65.13
73332;BME280;61560;33.718;73.040;2023-03-21T07:52:30;94579.97;;;20.20;63.91
73332;BME280;61560;33.718;73.040;2023-03-21T07:54:57;94578.06;;;20.26;65.25
73332;BME280;61560;33.718;73.040;2023-03-21T07:57:24;94573.47;;;20.23;64.30
73332;BME280;61560;33.718;73.040;2023-03-21T07:59:52;94568.53;;;20.18;65.29
73332;BME280;61560;33.718;73.040;2023-03-21T08:02:19;94563.97;;;20.15;63.33
73332;BME280;61560;33.718;73.040;2023-03-21T08:04:46;94569.69;;;19.97;63.43
73332;BME280;61560;33.718;73.040;2023-03-21T08:07:13;94560.59;;;19.97;63.67
73332;BME280;61560;33.718;73.040;2023-03-21T08:09:42;94557.91;;;20.02;63.71
73332;BME280;61560;33.718;73.040;2023-03-21T08:12:09;94558.56;;;20.12;65.17
73332;BME280;61560;33.718;73.040;2023-03-21T08:14:37;94558.88;;;20.28;65.35
73332;BME280;61560;33.718;73.040;2023-03-21T08:17:04;94551.03;;;20.62;64.41
73332;BME280;61560;33.718;73.040;2023-03-21T08:19:32;94545.59;;;20.87;63.42
73332;BME280;61560;33.718;73.040;2023-03-21T08:22:00;94534.78;;;21.09;63.68
73332;BME280;61560;33.718;73.040;2023-03-21T08:24:28;94528.63;;;21.26;61.74
73332;BME280;61560;33.718;73.040;2023-03-21T08:26:55;94525.34;;;21.27;61.57
73332;BME280;61560;33.718;73.040;2023-03-21T08:29:22;94514.09;;;21.16;60.41
73332;BME280;61560;33.718;73.040;2023-03-21T08:31:50;94515.41;;;21.20;60.56
73332;BME280;61560;33.718;73.040;2023-03-21T08:34:18;94514.38;;;21.18;60.64
73332;BME280;61560;33.718;73.040;2023-03-21T08:36:45;94509.28;;;21.16;59.36
73332;BME280;61560;33.718;73.040;2023-03-21T08:39:13;94507.47;;;21.13;59.35
73332;BME280;61560;33.718;73.040;2023-03-21T08:41:40;94501.91;;;21.13;59.94
73332;BME280;61560;33.718;73.040;2023-03-21T08:44:09;94502.47;;;21.17;59.71
73332;BME280;61560;33.718;73.040;2023-03-21T08:46:36;94500.16;;;21.16;60.29
73332;BME280;61560;33.718;73.040;2023-03-21T08:49:04;94496.06;;;21.11;59.80
73332;BME280;61560;33.718;73.040;2023-03-21T08:51:31;94488.31;;;21.21;58.47
73332;BME280;61560;33.718;73.040;2023-03-21T08:53:59;94474.06;;;21.39;58.48
73332;BME280;61560;33.718;73.040;2023-03-21T08:56:25;94476.16;;;21.44;57.43
73332;BME280;61560;33.718;73.040;2023-03-21T08:58:52;94468.72;;;21.61;57.05
73332;BME280;61560;33.718;73.040;2023-03-21T09:01:19;94458.13;;;21.65;56.96
73332;BME280;61560;33.718;73.040;2023-03-21T09:03:47;94464.25;;;21.69;57.46
73332;BME280;61560;33.718;73.040;2023-03-21T09:06:14;94457.44;;;21.76;55.62
73332;BME280;61560;33.718;73.040;2023-03-21T09:08:41;94451.41;;;21.77;55.52
73332;BME280;61560;33.718;73.040;2023-03-21T09:11:09;94443.78;;;21.78;54.94
73332;BME280;61560;33.718;73.040;2023-03-21T09:13:36;94440.50;;;21.79;56.01
73332;BME280;61560;33.718;73.040;2023-03-21T09:16:03;94437.72;;;21.79;53.74
73332;BME280;61560;33.718;73.040;2023-03-21T09:18:31;94436.94;;;21.79;55.00
73332;BME280;61560;33.718;73.040;2023-03-21T09:21:16;94434.41;;;21.75;54.01
73332;BME280;61560;33.718;73.040;2023-03-21T09:23:45;94431.63;;;21.75;54.07
73332;BME280;61560;33.718;73.040;2023-03-21T09:26:12;94432.84;;;21.74;54.87
73332;BME280;61560;33.718;73.040;2023-03-21T09:28:39;94431.66;;;21.81;55.17
73332;BME280;61560;33.718;73.040;2023-03-21T09:31:07;94435.16;;;21.76;53.88
73332;BME280;61560;33.718;73.040;2023-03-21T09:33:40;94435.25;;;21.61;53.45
73332;BME280;61560;33.718;73.040;2023-03-21T09:36:08;94429.66;;;21.56;54.43
73332;BME280;61560;33.718;73.040;2023-03-21T09:38:40;94429.41;;;21.59;55.03
73332;BME280;61560;33.718;73.040;2023-03-21T09:49:42;94409.69;;;21.88;53.07
73332;BME280;61560;33.718;73.040;2023-03-21T09:52:20;94410.47;;;21.94;53.18
73332;BME280;61560;33.718;73.040;2023-03-21T09:54:49;94394.28;;;21.98;53.79
73332;BME280;61560;33.718;73.040;2023-03-21T09:57:38;94401.16;;;22.03;52.68
73332;BME280;61560;33.718;73.040;2023-03-21T10:00:21;94393.56;;;22.04;52.63
73332;BME280;61560;33.718;73.040;2023-03-21T10:02:53;94399.41;;;22.06;52.53
73332;BME280;61560;33.718;73.040;2023-03-21T10:05:29;94388.00;;;22.04;51.30
73332;BME280;61560;33.718;73.040;2023-03-21T10:08:19;94388.22;;;22.00;50.25
73332;BME280;61560;33.718;73.040;2023-03-21T10:10:55;94399.31;;;21.94;49.85
73332;BME280;61560;33.718;73.040;2023-03-21T10:13:34;94379.06;;;21.94;50.64
73332;BME280;61560;33.718;73.040;2023-03-21T10:16:13;94386.94;;;22.01;50.46
73332;BME280;61560;33.718;73.040;2023-03-21T10:18:42;94378.06;;;22.02;49.71
73332;BME280;61560;33.718;73.040;2023-03-21T10:21:25;94375.28;;;22.02;49.58
73332;BME280;61560;33.718;73.040;2023-03-21T10:23:55;94382.41;;;22.04;50.52
73332;BME280;61560;33.718;73.040;2023-03-21T10:26:24;94372.25;;;22.00;49.97
73332;BME280;61560;33.718;73.040;2023-03-21T10:29:00;94378.06;;;21.97;49.69
73332;BME280;61560;33.718;73.040;2023-03-21T10:31:28;94367.84;;;21.88;50.27
73332;BME280;61560;33.718;73.040;2023-03-21T10:33:59;94368.09;;;21.85;50.14
73332;BME280;61560;33.718;73.040;2023-03-21T10:36:30;94369.34;;;21.84;49.94
73332;BME280;61560;33.718;73.040;2023-03-21T10:39:05;94360.69;;;21.82;50.70
73332;BME280;61560;33.718;73.040;2023-03-21T10:41:33;94352.53;;;21.78;51.23
73332;BME280;61560;33.718;73.040;2023-03-21T10:46:34;94335.88;;;21.84;52.30
73332;BME280;61560;33.718;73.040;2023-03-21T10:49:01;94349.59;;;21.87;51.99
73332;BME280;61560;33.718;73.040;2023-03-21T10:51:35;94345.22;;;21.81;51.28
73332;BME280;61560;33.718;73.040;2023-03-21T10:54:11;94353.06;;;21.77;51.50
73332;BME280;61560;33.718;73.040;2023-03-21T10:56:44;94349.47;;;21.71;52.29
73332;BME280;61560;33.718;73.040;2023-03-21T10:59:19;94359.31;;;21.66;52.81
73332;BME280;61560;33.718;73.040;2023-03-21T11:01:49;94347.38;;;21.66;52.48
73332;BME280;61560;33.718;73.040;2023-03-21T11:04:21;94344.66;;;21.71;52.94
73332;BME280;61560;33.718;73.040;2023-03-21T11:07:03;94342.16;;;21.79;52.88
73332;BME280;61560;33.718;73.040;2023-03-21T11:09:56;94339.94;;;21.83;52.57
73332;BME280;61560;33.718;73.040;2023-03-21T11:12:36;94347.78;;;21.84;52.37
73332;BME280;61560;33.718;73.040;2023-03-21T11:15:28;94352.13;;;21.85;52.74
73332;BME280;61560;33.718;73.040;2023-03-21T11:18:11;94354.16;;;21.85;53.10
73332;BME280;61560;33.718;73.040;2023-03-21T11:20:47;94346.19;;;21.78;53.12
73332;BME280;61560;33.718;73.040;2023-03-21T11:23:15;94346.97;;;21.78;53.12
73332;BME280;61560;33.718;73.040;2023-03-21T11:25:43;94347.25;;;21.80;52.84
73332;BME280;61560;33.718;73.040;2023-03-21T11:28:21;94354.56;;;21.78;52.84
73332;BME280;61560;33.718;73.040;2023-03-21T11:30:55;94346.66;;;21.71;52.59
73332;BME280;61560;33.718;73.040;2023-03-21T11:33:34;94346.91;;;21.67;53.11
73332;BME280;61560;33.718;73.040;2023-03-21T11:36:10;94345.34;;;21.61;53.56
73332;BME280;61560;33.718;73.040;2023-03-21T11:38:53;94345.50;;;21.52;53.26
73332;BME280;61560;33.718;73.040;2023-03-21T11:41:29;94350.78;;;21.44;53.80
73332;BME280;61560;33.718;73.040;2023-03-21T11:43:57;94348.41;;;21.37;54.12
73332;BME280;61560;33.718;73.040;2023-03-21T11:46:30;94343.03;;;21.28;54.49
73332;BME280;61560;33.718;73.040;2023-03-21T11:48:58;94350.03;;;21.18;54.79
73332;BME280;61560;33.718;73.040;2023-03-21T11:56:55;94363.31;;;20.83;55.28
73332;BME280;61560;33.718;73.040;2023-03-21T12:06:01;94383.31;;;20.61;56.79
73332;BME280;61560;33.718;73.040;2023-03-21T12:08:40;94387.53;;;20.57;57.10
73332;BME280;61560;33.718;73.040;2023-03-21T12:25:39;94404.25;;;20.36;59.34
73332;BME280;61560;33.718;73.040;2023-03-21T12:44:38;94400.16;;;20.17;60.73
73332;BME280;61560;33.718;73.040;2023-03-21T12:47:15;94400.63;;;20.16;61.01
73332;BME280;61560;33.718;73.040;2023-03-21T12:49:59;94393.28;;;20.13;60.94
73332;BME280;61560;33.718;73.040;2023-03-21T12:52:33;94403.34;;;20.10;61.27
73332;BME280;61560;33.718;73.040;2023-03-21T12:55:19;94404.22;;;20.02;61.66
73332;BME280;61560;33.718;73.040;2023-03-21T13:00:40;94416.72;;;19.92;62.15
73332;BME280;61560;33.718;73.040;2023-03-21T13:03:18;94420.66;;;19.85;62.63
73332;BME280;61560;33.718;73.040;2023-03-21T13:05:54;94430.63;;;19.77;62.64
73332;BME280;61560;33.718;73.040;2023-03-21T13:08:34;94436.88;;;19.72;63.15
73332;BME280;61560;33.718;73.040;2023-03-21T13:11:04;94439.75;;;19.63;63.31
73332;BME280;61560;33.718;73.040;2023-03-21T13:16:33;94434.22;;;19.48;63.10
73332;BME280;61560;33.718;73.040;2023-03-21T13:25:14;94465.03;;;19.36;64.08
73332;BME280;61560;33.718;73.040;2023-03-21T13:27:43;94462.91;;;19.31;64.38
73332;BME280;61560;33.718;73.040;2023-03-21T13:30:24;94459.06;;;19.28;64.49
73332;BME280;61560;33.718;73.040;2023-03-21T13:33:09;94454.66;;;19.22;64.79
73332;BME280;61560;33.718;73.040;2023-03-21T13:35:39;94457.63;;;19.18;64.82
73332;BME280;61560;33.718;73.040;2023-03-21T13:38:13;94467.38;;;19.14;65.01
73332;BME280;61560;33.718;73.040;2023-03-21T13:46:34;94462.38;;;19.03;66.01
73332;BME280;61560;33.718;73.040;2023-03-21T13:49:34;94466.78;;;18.95;66.75
73332;BME280;61560;33.718;73.040;2023-03-21T13:52:26;94462.06;;;18.87;67.24
73332;BME280;61560;33.718;73.040;2023-03-21T13:54:55;94464.25;;;18.83;67.31
73332;BME280;61560;33.718;73.040;2023-03-21T14:00:16;94468.31;;;18.72;67.14
73332;BME280;61560;33.718;73.040;2023-03-21T14:03:11;94471.47;;;18.65;68.06
73332;BME280;61560;33.718;73.040;2023-03-21T14:05:39;94468.75;;;18.56;68.35
73332;BME280;61560;33.718;73.040;2023-03-21T14:08:09;94469.56;;;18.48;68.30
73332;BME280;61560;33.718;73.040;2023-03-21T14:10:44;94463.88;;;18.42;68.40
73332;BME280;61560;33.718;73.040;2023-03-21T14:13:16;94472.25;;;18.33;68.80
73332;BME280;61560;33.718;73.040;2023-03-21T14:15:53;94471.94;;;18.31;68.96
73332;BME280;61560;33.718;73.040;2023-03-21T14:18:26;94478.44;;;18.28;69.05
73332;BME280;61560;33.718;73.040;2023-03-21T14:20:55;94476.44;;;18.29;69.02
73332;BME280;61560;33.718;73.040;2023-03-21T14:23:23;94477.84;;;18.24;69.10
73332;BME280;61560;33.718;73.040;2023-03-21T14:25:51;94470.94;;;18.20;69.31
73332;BME280;61560;33.718;73.040;2023-03-21T14:28:24;94473.44;;;18.18;69.16
73332;BME280;61560;33.718;73.040;2023-03-21T14:30:57;94470.06;;;18.14;69.20
73332;BME280;61560;33.718;73.040;2023-03-21T14:33:32;94476.06;;;18.12;69.48
73332;BME280;61560;33.718;73.040;2023-03-21T14:36:14;94487.78;;;18.07;69.13
73332;BME280;61560;33.718;73.040;2023-03-21T14:38:43;94481.97;;;17.96;69.17
73332;BME280;61560;33.718;73.040;2023-03-21T14:41:26;94492.75;;;17.94;69.25
73332;BME280;61560;33.718;73.040;2023-03-21T14:46:47;94497.09;;;17.86;69.75
73332;BME280;61560;33.718;73.040;2023-03-21T14:49:26;94509.25;;;17.88;69.72
73332;BME280;61560;33.718;73.040;2023-03-21T14:52:01;94517.28;;;17.86;69.55
73332;BME280;61560;33.718;73.040;2023-03-21T14:54:29;94521.28;;;17.85;69.16
73332;BME280;61560;33.718;73.040;2023-03-21T14:57:02;94528.53;;;17.83;69.41
73332;BME280;61560;33.718;73.040;2023-03-21T14:59:36;94523.16;;;17.79;69.29
73332;BME280;61560;33.718;73.040;2023-03-21T15:02:17;94536.84;;;17.83;69.28
73332;BME280;61560;33.718;73.040;2023-03-21T15:04:50;94529.00;;;17.81;69.46
73332;BME280;61560;33.718;73.040;2023-03-21T15:07:30;94522.09;;;17.77;69.25
73332;BME280;61560;33.718;73.040;2023-03-21T15:10:01;94529.00;;;17.72;69.33
73332;BME280;61560;33.718;73.040;2023-03-21T15:12:31;94528.09;;;17.66;69.77
73332;BME280;61560;33.718;73.040;2023-03-21T15:14:59;94524.44;;;17.60;69.42
73332;BME280;61560;33.718;73.040;2023-03-21T15:17:28;94547.19;;;17.64;69.45
73332;BME280;61560;33.718;73.040;2023-03-21T15:19:55;94549.34;;;17.60;69.38
73332;BME280;61560;33.718;73.040;2023-03-21T15:22:49;94557.53;;;17.55;69.21
73332;BME280;61560;33.718;73.040;2023-03-21T15:25:21;94559.78;;;17.47;69.31